createdAt,value
2018-07-25T00:01:43.631Z,25.30
2018-07-25T00:04:14.300Z,25.31
2018-07-25T00:06:44.946Z,25.29
2018-07-25T00:09:15.647Z,25.26
2018-07-25T00:11:46.330Z,25.25
2018-07-25T00:14:16.991Z,25.21
2018-07-25T00:16:47.723Z,25.18
2018-07-25T00:19:18.427Z,25.14
2018-07-25T00:21:49.134Z,25.12
2018-07-25T00:24:19.852Z,25.11
2018-07-25T00:26:50.623Z,25.09
2018-07-25T00:29:21.694Z,25.04
2018-07-25T00:31:52.411Z,25.00
2018-07-25T00:34:23.042Z,24.96
2018-07-25T00:36:53.709Z,24.93
2018-07-25T00:39:24.390Z,24.86
2018-07-25T00:41:55.185Z,24.81
2018-07-25T00:44:25.937Z,24.78
2018-07-25T00:46:56.682Z,24.74
2018-07-25T00:49:27.382Z,24.72
2018-07-25T00:51:58.039Z,24.68
2018-07-25T00:54:28.818Z,24.63
2018-07-25T00:56:59.522Z,24.59
2018-07-25T00:59:30.255Z,24.55
2018-07-25T01:02:00.916Z,24.51
2018-07-25T01:04:31.738Z,24.49
2018-07-25T01:07:02.476Z,24.46
2018-07-25T01:09:33.151Z,24.44
2018-07-25T01:12:03.977Z,24.40
2018-07-25T01:14:34.700Z,24.36
2018-07-25T01:17:05.504Z,24.33
2018-07-25T01:19:36.211Z,24.29
2018-07-25T01:22:06.941Z,24.25
2018-07-25T01:24:37.640Z,24.23
2018-07-25T01:27:08.608Z,24.21
2018-07-25T01:29:39.287Z,24.16
2018-07-25T01:32:09.987Z,24.11
2018-07-25T01:34:40.668Z,24.08
2018-07-25T01:37:11.591Z,24.05
2018-07-25T01:39:42.287Z,24.00
2018-07-25T01:42:12.999Z,23.97
2018-07-25T01:44:43.685Z,23.91
2018-07-25T01:47:14.380Z,23.86
2018-07-25T01:49:45.093Z,23.81
2018-07-25T01:52:15.809Z,23.74
2018-07-25T01:54:46.444Z,23.70
2018-07-25T01:57:17.136Z,23.63
2018-07-25T01:59:47.869Z,23.59
2018-07-25T02:02:18.514Z,23.54
2018-07-25T02:04:49.142Z,23.50
2018-07-25T02:07:19.897Z,23.45
2018-07-25T02:09:50.513Z,23.37
2018-07-25T02:12:21.202Z,23.31
2018-07-25T02:14:51.960Z,23.27
2018-07-25T02:17:22.662Z,23.26
2018-07-25T02:19:53.314Z,23.22
2018-07-25T02:22:24.039Z,23.16
2018-07-25T02:24:54.728Z,23.12
2018-07-25T02:27:25.447Z,23.09
2018-07-25T02:29:56.126Z,23.02
2018-07-25T02:32:26.808Z,22.93
2018-07-25T02:34:57.484Z,22.88
2018-07-25T02:37:28.168Z,22.85
2018-07-25T02:39:58.919Z,22.82
2018-07-25T02:42:29.656Z,22.78
2018-07-25T02:45:00.337Z,22.76
2018-07-25T02:47:31.068Z,22.72
2018-07-25T02:50:01.743Z,22.68
2018-07-25T02:52:32.549Z,22.65
2018-07-25T02:55:03.249Z,22.60
2018-07-25T02:57:33.887Z,22.57
2018-07-25T03:00:05.691Z,22.54
2018-07-25T03:02:36.444Z,22.49
2018-07-25T03:05:07.588Z,22.45
2018-07-25T03:07:38.226Z,22.40
2018-07-25T03:10:09.002Z,22.37
2018-07-25T03:12:39.767Z,22.31
2018-07-25T03:15:10.479Z,22.28
2018-07-25T03:17:41.132Z,22.23
2018-07-25T03:20:11.839Z,22.20
2018-07-25T03:22:42.672Z,22.17
2018-07-25T03:25:13.351Z,22.12
2018-07-25T03:27:44.038Z,22.08
2018-07-25T03:30:14.794Z,22.04
2018-07-25T03:32:45.498Z,21.98
2018-07-25T03:35:16.197Z,21.95
2018-07-25T03:37:46.899Z,21.92
2018-07-25T03:40:17.604Z,21.90
2018-07-25T03:42:48.296Z,21.87
2018-07-25T03:45:19.037Z,21.87
2018-07-25T03:47:49.766Z,21.85
2018-07-25T03:50:20.482Z,21.83
2018-07-25T03:52:51.172Z,21.81
2018-07-25T03:55:21.953Z,21.79
2018-07-25T03:57:52.627Z,21.78
2018-07-25T04:00:23.374Z,21.78
2018-07-25T04:02:54.039Z,21.77
2018-07-25T04:05:24.736Z,21.79
2018-07-25T04:07:55.457Z,21.79
2018-07-25T04:10:26.210Z,21.79
2018-07-25T04:12:56.965Z,21.76
2018-07-25T04:15:27.611Z,21.75
2018-07-25T04:17:58.325Z,21.78
2018-07-25T04:20:28.995Z,21.80
2018-07-25T04:22:59.675Z,21.82
2018-07-25T04:25:30.571Z,21.85
2018-07-25T04:28:01.243Z,21.87
2018-07-25T04:30:32.026Z,21.90
2018-07-25T04:33:03.073Z,21.93
2018-07-25T04:35:39.467Z,21.95
2018-07-25T04:38:10.183Z,22.01
2018-07-25T04:40:40.949Z,22.11
2018-07-25T04:43:11.727Z,22.21
2018-07-25T04:45:42.462Z,22.33
2018-07-25T04:48:13.150Z,22.45
2018-07-25T04:50:43.905Z,22.53
2018-07-25T04:53:14.617Z,22.61
2018-07-25T04:55:45.340Z,22.68
2018-07-25T04:58:16.065Z,22.76
2018-07-25T05:00:46.748Z,22.85
2018-07-25T05:03:17.413Z,22.90
2018-07-25T05:08:17.219Z,22.97
2018-07-25T05:10:47.818Z,22.96
2018-07-25T05:13:18.500Z,22.99
2018-07-25T05:15:49.329Z,23.03
2018-07-25T05:18:20.031Z,23.09
2018-07-25T05:20:50.790Z,23.19
2018-07-25T05:23:21.482Z,23.28
2018-07-25T05:25:52.147Z,23.36
2018-07-25T05:28:22.855Z,23.46
2018-07-25T05:30:53.590Z,23.55
2018-07-25T05:33:24.318Z,23.59
2018-07-25T05:35:54.995Z,23.61
2018-07-25T05:38:25.693Z,23.61
2018-07-25T05:43:57.885Z,23.68
2018-07-25T05:46:28.511Z,23.72
2018-07-25T05:48:59.241Z,23.78
2018-07-25T05:51:29.917Z,23.85
2018-07-25T05:54:00.650Z,23.90
2018-07-25T05:56:31.455Z,24.01
2018-07-25T05:59:02.187Z,24.12
2018-07-25T06:01:32.830Z,24.18
2018-07-25T06:04:03.652Z,24.19
2018-07-25T06:06:34.410Z,24.25
2018-07-25T06:09:08.183Z,24.31
2018-07-25T06:11:39.366Z,24.36
2018-07-25T06:14:10.095Z,24.42
2018-07-25T06:16:40.808Z,24.45
2018-07-25T06:19:11.513Z,24.48
2018-07-25T06:21:42.215Z,24.54
2018-07-25T06:24:13.004Z,24.63
2018-07-25T06:26:43.685Z,24.73
2018-07-25T06:29:14.370Z,24.79
2018-07-25T06:31:45.053Z,24.84
2018-07-25T06:34:15.735Z,24.94
2018-07-25T06:36:46.360Z,25.01
2018-07-25T06:39:17.034Z,25.09
2018-07-25T06:41:47.704Z,25.21
2018-07-25T06:44:18.367Z,25.36
2018-07-25T06:46:49.030Z,25.47
2018-07-25T06:49:19.339Z,25.58
2018-07-25T06:51:49.892Z,25.69
2018-07-25T06:54:20.539Z,25.82
2018-07-25T06:56:51.262Z,25.90
2018-07-25T06:59:21.940Z,26.06
2018-07-25T07:01:52.556Z,26.19
2018-07-25T07:04:23.243Z,26.35
2018-07-25T07:06:53.886Z,26.44
2018-07-25T07:09:24.554Z,26.51
2018-07-25T07:11:55.173Z,26.59
2018-07-25T07:14:25.858Z,26.55
2018-07-25T07:16:56.475Z,26.61
2018-07-25T07:19:27.157Z,26.78
2018-07-25T07:21:57.962Z,26.91
2018-07-25T07:24:28.594Z,27.03
2018-07-25T07:26:59.224Z,27.15
2018-07-25T07:29:29.901Z,27.29
2018-07-25T07:32:00.568Z,27.41
2018-07-25T07:34:31.239Z,27.62
2018-07-25T07:37:02.279Z,27.75
2018-07-25T07:39:32.913Z,27.92
2018-07-25T07:42:03.635Z,28.07
2018-07-25T07:44:34.286Z,28.09
2018-07-25T07:47:05.039Z,28.29
2018-07-25T07:49:35.686Z,28.59
2018-07-25T07:52:06.488Z,28.92
2018-07-25T07:54:37.198Z,29.22
2018-07-25T07:57:07.879Z,29.54
2018-07-25T07:59:38.606Z,29.84
2018-07-25T08:02:09.432Z,30.06
2018-07-25T08:04:40.056Z,30.37
2018-07-25T08:07:10.797Z,30.57
2018-07-25T08:09:41.458Z,30.77
2018-07-25T08:12:12.147Z,30.97
2018-07-25T08:14:42.827Z,31.17
2018-07-25T08:17:13.507Z,31.43
2018-07-25T08:19:44.239Z,31.66
2018-07-25T08:22:14.855Z,31.88
2018-07-25T08:24:45.484Z,32.03
2018-07-25T08:27:16.188Z,32.22
2018-07-25T08:30:17.413Z,32.51
2018-07-25T08:32:48.066Z,32.76
2018-07-25T08:35:18.709Z,32.60
2018-07-25T08:37:49.356Z,32.84
2018-07-25T08:40:20.080Z,33.13
2018-07-25T08:42:50.785Z,33.32
2018-07-25T08:45:21.403Z,33.52
2018-07-25T08:47:52.068Z,33.65
2018-07-25T08:50:22.736Z,33.61
2018-07-25T08:52:53.493Z,33.26
2018-07-25T08:55:24.072Z,33.19
2018-07-25T08:57:54.783Z,33.21
2018-07-25T09:00:25.503Z,33.28
2018-07-25T09:02:56.153Z,33.47
2018-07-25T09:05:26.770Z,33.82
2018-07-25T09:07:57.430Z,34.18
2018-07-25T09:10:28.091Z,34.58
2018-07-25T09:12:58.753Z,34.85
2018-07-25T09:15:29.360Z,35.00
2018-07-25T09:18:00.043Z,35.30
2018-07-25T09:20:30.732Z,35.37
2018-07-25T09:23:01.420Z,35.46
2018-07-25T09:25:32.532Z,35.60
2018-07-25T09:28:03.233Z,35.74
2018-07-25T09:30:33.945Z,36.04
2018-07-25T09:33:04.652Z,36.31
2018-07-25T09:35:35.333Z,36.46
2018-07-25T09:38:06.059Z,36.68
2018-07-25T09:40:36.714Z,36.81
2018-07-25T09:43:07.458Z,37.01
2018-07-25T09:45:38.127Z,37.16
2018-07-25T09:48:08.829Z,37.25
2018-07-25T09:50:39.545Z,37.45
2018-07-25T09:53:10.316Z,37.36
2018-07-25T09:55:40.930Z,37.44
2018-07-25T09:58:11.605Z,37.72
2018-07-25T10:00:50.282Z,37.93
2018-07-25T10:03:21.091Z,37.87
2018-07-25T10:05:51.786Z,37.95
2018-07-25T10:08:22.456Z,38.10
2018-07-25T10:10:53.180Z,38.18
2018-07-25T10:13:23.863Z,38.47
2018-07-25T10:15:54.584Z,38.50
2018-07-25T10:18:25.243Z,38.64
2018-07-25T10:20:56.009Z,38.65
2018-07-25T10:23:26.651Z,38.80
2018-07-25T10:25:57.295Z,39.01
2018-07-25T10:28:28.188Z,39.28
2018-07-25T10:30:58.887Z,39.46
2018-07-25T10:33:29.544Z,39.18
2018-07-25T10:36:00.187Z,39.40
2018-07-25T10:38:30.869Z,39.42
2018-07-25T10:41:01.532Z,39.70
2018-07-25T10:43:32.212Z,40.04
2018-07-25T10:46:02.853Z,40.12
2018-07-25T10:48:33.546Z,40.09
2018-07-25T10:51:04.210Z,40.26
2018-07-25T10:53:34.946Z,40.24
2018-07-25T10:56:05.607Z,39.94
2018-07-25T10:58:36.284Z,39.97
2018-07-25T11:01:13.653Z,40.26
2018-07-25T11:07:18.014Z,40.59
2018-07-25T11:09:48.795Z,40.73
2018-07-25T11:12:19.399Z,40.96
2018-07-25T11:14:50.085Z,41.10
2018-07-25T11:17:20.705Z,41.17
2018-07-25T11:19:51.499Z,41.11
2018-07-25T11:22:22.134Z,41.19
2018-07-25T11:24:52.863Z,40.65
2018-07-25T11:27:23.501Z,40.81
2018-07-25T11:29:54.166Z,40.95
2018-07-25T11:32:24.815Z,41.14
2018-07-25T11:34:55.529Z,41.30
2018-07-25T11:37:26.205Z,41.64
2018-07-25T11:39:56.876Z,41.37
2018-07-25T11:42:27.582Z,41.59
2018-07-25T11:44:58.233Z,41.85
2018-07-25T11:47:32.681Z,41.63
2018-07-25T11:50:03.553Z,41.63
2018-07-25T11:52:33.848Z,41.58
2018-07-25T11:55:04.623Z,41.15
2018-07-25T11:57:35.283Z,40.80
2018-07-25T12:00:06.531Z,40.53
2018-07-25T12:02:37.207Z,40.31
2018-07-25T12:05:08.026Z,39.97
2018-07-25T12:07:38.655Z,39.70
2018-07-25T12:10:09.480Z,39.61
2018-07-25T12:12:40.163Z,39.59
2018-07-25T12:15:11.119Z,39.96
2018-07-25T12:17:41.764Z,40.44
2018-07-25T12:20:12.443Z,40.74
2018-07-25T12:22:43.115Z,40.72
2018-07-25T12:25:13.864Z,40.22
2018-07-25T12:27:44.546Z,39.68
2018-07-25T12:30:15.228Z,39.00
2018-07-25T12:32:46.229Z,38.62
2018-07-25T12:35:16.915Z,38.55
2018-07-25T12:37:47.634Z,38.58
2018-07-25T12:40:18.310Z,38.57
2018-07-25T12:42:49.063Z,38.24
2018-07-25T12:45:19.730Z,38.10
2018-07-25T12:47:50.403Z,37.87
2018-07-25T12:50:21.100Z,37.91
2018-07-25T12:52:51.851Z,37.74
2018-07-25T12:55:22.547Z,37.66
2018-07-25T12:57:53.282Z,37.43
2018-07-25T13:00:24.008Z,37.25
2018-07-25T13:02:54.732Z,37.08
2018-07-25T13:05:25.384Z,37.10
2018-07-25T13:07:56.084Z,37.14
2018-07-25T13:10:26.820Z,37.21
2018-07-25T13:12:57.510Z,37.27
2018-07-25T13:15:28.211Z,37.44
2018-07-25T13:17:58.858Z,37.59
2018-07-25T13:20:29.558Z,37.69
2018-07-25T13:23:00.309Z,37.61
2018-07-25T13:25:30.987Z,37.44
2018-07-25T13:28:01.668Z,37.36
2018-07-25T13:30:32.673Z,37.33
2018-07-25T13:33:03.359Z,37.46
2018-07-25T13:35:34.047Z,37.49
2018-07-25T13:38:04.875Z,37.39
2018-07-25T13:40:35.710Z,37.51
2018-07-25T13:43:06.682Z,37.35
2018-07-25T13:45:37.428Z,37.18
2018-07-25T13:48:08.114Z,36.91
2018-07-25T13:50:38.823Z,36.74
2018-07-25T13:53:09.542Z,36.62
2018-07-25T13:55:40.287Z,36.46
2018-07-25T13:58:10.958Z,36.33
2018-07-25T14:00:41.615Z,36.20
2018-07-25T14:03:12.324Z,36.12
2018-07-25T14:05:42.987Z,36.02
2018-07-25T14:08:13.674Z,35.80
2018-07-25T14:10:44.378Z,35.30
2018-07-25T14:13:15.063Z,35.09
2018-07-25T14:15:45.734Z,34.83
2018-07-25T14:18:16.471Z,34.68
2018-07-25T14:20:47.958Z,34.55
2018-07-25T14:23:18.639Z,34.43
2018-07-25T14:25:49.456Z,34.30
2018-07-25T14:28:20.173Z,34.27
2018-07-25T14:30:50.914Z,34.16
2018-07-25T14:33:21.267Z,33.97
2018-07-25T14:35:51.855Z,33.86
2018-07-25T14:38:22.548Z,33.68
2018-07-25T14:50:19.011Z,32.48
2018-07-25T14:52:49.713Z,32.34
2018-07-25T14:55:20.427Z,32.35
2018-07-25T14:57:51.152Z,32.20
2018-07-25T15:00:21.924Z,32.05
2018-07-25T15:02:52.678Z,32.02
2018-07-25T15:05:23.328Z,31.99
2018-07-25T15:07:54.143Z,32.08
2018-07-25T15:10:24.910Z,31.98
2018-07-25T15:12:58.069Z,32.09
2018-07-25T15:15:29.042Z,32.13
2018-07-25T15:17:59.717Z,32.18
2018-07-25T15:20:31.329Z,32.15
2018-07-25T15:23:02.035Z,32.09
2018-07-25T15:25:32.744Z,32.02
2018-07-25T15:28:03.450Z,31.94
2018-07-25T15:30:34.137Z,31.90
2018-07-25T15:33:04.923Z,31.87
2018-07-25T15:35:35.651Z,31.81
2018-07-25T15:38:06.545Z,31.76
2018-07-25T15:40:37.290Z,31.72
2018-07-25T15:43:08.251Z,31.69
2018-07-25T15:45:39.062Z,31.63
2018-07-25T15:48:09.812Z,31.49
2018-07-25T15:50:40.503Z,31.41
2018-07-25T15:53:11.207Z,31.38
2018-07-25T15:55:41.912Z,31.35
2018-07-25T15:58:12.973Z,31.32
2018-07-25T16:00:43.794Z,31.27
2018-07-25T16:03:14.550Z,31.24
2018-07-25T16:05:45.262Z,31.18
2018-07-25T16:08:16.043Z,31.13
2018-07-25T16:10:46.783Z,31.05
2018-07-25T16:13:17.574Z,30.95
2018-07-25T16:15:48.229Z,30.91
2018-07-25T16:18:18.999Z,30.80
2018-07-25T16:21:20.436Z,30.71
2018-07-25T16:23:51.130Z,30.59
2018-07-25T16:26:21.855Z,30.48
2018-07-25T16:28:52.525Z,30.43
2018-07-25T16:31:23.206Z,30.34
2018-07-25T16:33:53.922Z,30.25
2018-07-25T16:36:24.639Z,30.22
2018-07-25T16:38:55.334Z,30.20
2018-07-25T16:41:26.059Z,30.20
2018-07-25T16:43:56.742Z,30.16
2018-07-25T16:46:27.446Z,30.16
2018-07-25T16:48:58.158Z,30.16
2018-07-25T16:51:28.807Z,30.13
2018-07-25T16:53:59.523Z,30.13
2018-07-25T16:56:30.252Z,30.11
2018-07-25T16:59:00.926Z,30.06
2018-07-25T17:01:31.601Z,29.98
2018-07-25T17:04:02.263Z,29.91
2018-07-25T17:06:33.014Z,29.77
2018-07-25T17:09:04.084Z,29.72
2018-07-25T17:11:34.811Z,29.67
2018-07-25T17:14:05.603Z,29.60
2018-07-25T17:16:36.292Z,29.55
2018-07-25T17:19:06.974Z,29.44
2018-07-25T17:21:37.709Z,29.39
2018-07-25T17:24:08.386Z,29.36
2018-07-25T17:26:39.083Z,29.37
2018-07-25T17:29:16.613Z,29.35
2018-07-25T17:31:47.323Z,29.29
2018-07-25T17:34:18.046Z,29.23
2018-07-25T17:36:48.708Z,29.19
2018-07-25T17:39:19.393Z,29.18
2018-07-25T17:41:50.142Z,29.17
2018-07-25T17:44:20.897Z,29.15
2018-07-25T17:46:51.635Z,29.16
2018-07-25T17:49:22.259Z,29.18
2018-07-25T17:51:52.979Z,29.19
2018-07-25T17:54:23.682Z,29.17
2018-07-25T17:56:54.384Z,29.16
2018-07-25T17:59:25.070Z,29.20
2018-07-25T18:01:55.889Z,29.16
2018-07-25T18:04:26.614Z,29.13
2018-07-25T18:06:57.539Z,29.07
2018-07-25T18:09:28.260Z,29.02
2018-07-25T18:11:58.988Z,29.05
2018-07-25T18:14:29.652Z,28.99
2018-07-25T18:17:00.343Z,28.93
2018-07-25T18:19:31.094Z,28.88
2018-07-25T18:22:01.911Z,28.83
2018-07-25T18:24:32.609Z,28.76
2018-07-25T18:27:03.341Z,28.73
2018-07-25T18:29:34.013Z,28.68
2018-07-25T18:32:04.763Z,28.67
2018-07-25T18:34:35.471Z,28.61
2018-07-25T18:37:06.161Z,28.50
2018-07-25T18:39:36.852Z,28.41
2018-07-25T18:42:07.695Z,28.35
2018-07-25T18:44:38.403Z,28.30
2018-07-25T18:47:09.124Z,28.23
2018-07-25T18:49:39.807Z,28.16
2018-07-25T18:52:10.489Z,28.11
2018-07-25T18:54:41.186Z,28.02
2018-07-25T18:57:11.888Z,27.97
2018-07-25T18:59:42.554Z,27.89
2018-07-25T19:02:13.370Z,27.84
2018-07-25T19:04:44.015Z,27.79
2018-07-25T19:07:14.721Z,27.69
2018-07-25T19:09:45.545Z,27.64
2018-07-25T19:12:16.200Z,27.62
2018-07-25T19:14:52.095Z,27.51
2018-07-25T19:17:22.787Z,27.41
2018-07-25T19:19:53.462Z,27.34
2018-07-25T19:22:24.153Z,27.28
2018-07-25T19:24:54.873Z,27.20
2018-07-25T19:27:25.546Z,27.18
2018-07-25T19:29:56.252Z,27.19
2018-07-25T19:32:26.919Z,27.06
2018-07-25T19:34:57.734Z,27.00
2018-07-25T19:37:28.367Z,26.87
2018-07-25T19:39:59.094Z,26.82
2018-07-25T19:42:29.731Z,26.72
2018-07-25T19:45:00.452Z,26.64
2018-07-25T19:47:31.080Z,26.64
2018-07-25T19:50:01.784Z,26.60
2018-07-25T19:52:32.448Z,26.53
2018-07-25T19:55:03.163Z,26.45
2018-07-25T19:57:33.821Z,26.42
2018-07-25T20:00:05.080Z,26.42
2018-07-25T20:02:35.451Z,26.34
2018-07-25T20:05:06.430Z,26.34
2018-07-25T20:07:37.173Z,26.29
2018-07-25T20:10:07.923Z,26.27
2018-07-25T20:12:38.585Z,26.23
2018-07-25T20:15:14.553Z,26.19
2018-07-25T20:17:45.258Z,26.14
2018-07-25T20:20:16.014Z,26.15
2018-07-25T20:22:46.714Z,26.09
2018-07-25T20:25:17.404Z,26.06
2018-07-25T20:27:48.090Z,25.99
2018-07-25T20:30:18.786Z,25.96
2018-07-25T20:32:49.485Z,25.97
2018-07-25T20:35:20.125Z,25.94
2018-07-25T20:37:50.805Z,25.88
2018-07-25T20:40:21.576Z,25.88
2018-07-25T20:42:52.744Z,25.84
2018-07-25T20:45:23.553Z,25.80
2018-07-25T20:47:54.263Z,25.73
2018-07-25T20:50:25.035Z,25.70
2018-07-25T20:52:55.680Z,25.74
2018-07-25T20:55:26.386Z,25.67
2018-07-25T20:57:56.785Z,25.64
2018-07-25T21:00:32.476Z,25.59
2018-07-25T21:03:05.270Z,25.60
2018-07-25T21:05:36.391Z,25.59
2018-07-25T21:08:07.128Z,25.57
2018-07-25T21:10:37.891Z,25.52
2018-07-25T21:13:08.542Z,25.54
2018-07-25T21:15:39.191Z,25.48
2018-07-25T21:18:09.861Z,25.46
2018-07-25T21:20:40.512Z,25.45
2018-07-25T21:23:11.180Z,25.42
2018-07-25T21:25:41.848Z,25.41
2018-07-25T21:28:12.676Z,25.45
2018-07-25T21:30:43.375Z,25.41
2018-07-25T21:33:14.004Z,25.36
2018-07-25T21:35:44.655Z,25.33
2018-07-25T21:38:15.984Z,25.32
2018-07-25T21:40:46.683Z,25.34
2018-07-25T21:45:46.001Z,25.30
2018-07-25T21:48:16.657Z,25.25
2018-07-25T21:50:47.293Z,25.21
2018-07-25T21:53:17.919Z,25.16
2018-07-25T21:55:48.556Z,25.11
2018-07-25T21:58:19.210Z,25.09
2018-07-25T22:00:57.166Z,25.06
2018-07-25T22:03:27.968Z,25.04
2018-07-25T22:05:58.643Z,25.00
2018-07-25T22:08:29.307Z,24.97
2018-07-25T22:11:00.012Z,24.94
2018-07-25T22:13:30.656Z,24.92
2018-07-25T22:16:01.632Z,24.86
2018-07-25T22:18:32.299Z,24.88
2018-07-25T22:21:02.984Z,24.84
2018-07-25T22:23:33.626Z,24.80
2018-07-25T22:26:04.355Z,24.80
2018-07-25T22:28:34.982Z,24.81
2018-07-25T22:31:05.733Z,24.79
2018-07-25T22:33:36.380Z,24.77
2018-07-25T22:36:07.898Z,24.77
2018-07-25T22:38:38.533Z,24.71
2018-07-25T22:41:09.232Z,24.67
2018-07-25T22:43:39.866Z,24.66
2018-07-25T22:46:10.597Z,24.61
2018-07-25T22:48:41.259Z,24.58
2018-07-25T22:51:11.569Z,24.52
2018-07-25T22:53:42.079Z,24.48
2018-07-25T22:56:12.709Z,24.46
2018-07-25T22:58:43.325Z,24.39
2018-07-25T23:01:13.959Z,24.34
2018-07-25T23:03:44.603Z,24.30
2018-07-25T23:06:15.251Z,24.29
2018-07-25T23:08:45.957Z,24.27
2018-07-25T23:11:16.595Z,24.23
2018-07-25T23:13:47.931Z,24.14
2018-07-25T23:16:18.602Z,24.09
2018-07-25T23:18:49.328Z,24.03
2018-07-25T23:21:19.975Z,23.98
2018-07-25T23:23:50.664Z,23.90
2018-07-25T23:26:21.295Z,23.91
2018-07-25T23:28:52.007Z,23.83
2018-07-25T23:31:22.663Z,23.82
2018-07-25T23:33:53.331Z,23.80
2018-07-25T23:36:23.964Z,23.78
2018-07-25T23:38:54.698Z,23.74
2018-07-25T23:41:25.358Z,23.72
2018-07-25T23:43:56.023Z,23.70
2018-07-25T23:46:26.707Z,23.68
2018-07-25T23:48:57.393Z,23.62
2018-07-25T23:51:28.059Z,23.59
2018-07-25T23:53:58.765Z,23.57
2018-07-25T23:56:29.429Z,23.55
2018-07-25T23:59:00.120Z,23.53
